sensor_id;sensor_type;location;lat;lon;timestamp;P1;durP1;ratioP1;P2;durP2;ratioP2
8889;SDS011;4481;43.406;24.454;2023-05-13T00:02:26;6.37;;;5.17;;
8889;SDS011;4481;43.406;24.454;2023-05-13T00:04:52;5.97;;;5.33;;
8889;SDS011;4481;43.406;24.454;2023-05-13T00:07:19;7.70;;;5.10;;
8889;SDS011;4481;43.406;24.454;2023-05-13T00:09:45;6.80;;;5.43;;
8889;SDS011;4481;43.406;24.454;2023-05-13T00:12:11;5.83;;;5.20;;
8889;SDS011;4481;43.406;24.454;2023-05-13T00:14:37;6.80;;;6.00;;
8889;SDS011;4481;43.406;24.454;2023-05-13T00:17:03;6.23;;;5.40;;
8889;SDS011;4481;43.406;24.454;2023-05-13T00:19:29;9.33;;;6.47;;
8889;SDS011;4481;43.406;24.454;2023-05-13T00:21:56;19.87;;;9.13;;
8889;SDS011;4481;43.406;24.454;2023-05-13T00:24:22;18.50;;;9.10;;
8889;SDS011;4481;43.406;24.454;2023-05-13T00:26:49;25.43;;;11.80;;
8889;SDS011;4481;43.406;24.454;2023-05-13T00:29:15;26.27;;;14.33;;
8889;SDS011;4481;43.406;24.454;2023-05-13T00:31:41;27.30;;;13.87;;
8889;SDS011;4481;43.406;24.454;2023-05-13T00:34:07;24.33;;;13.80;;
8889;SDS011;4481;43.406;24.454;2023-05-13T00:36:33;25.77;;;12.30;;
8889;SDS011;4481;43.406;24.454;2023-05-13T00:39:00;22.10;;;12.00;;
8889;SDS011;4481;43.406;24.454;2023-05-13T00:41:26;17.17;;;10.40;;
8889;SDS011;4481;43.406;24.454;2023-05-13T00:43:53;22.47;;;11.07;;
8889;SDS011;4481;43.406;24.454;2023-05-13T00:46:20;17.27;;;10.63;;
8889;SDS011;4481;43.406;24.454;2023-05-13T00:48:46;16.90;;;10.17;;
8889;SDS011;4481;43.406;24.454;2023-05-13T00:51:12;18.77;;;10.30;;
8889;SDS011;4481;43.406;24.454;2023-05-13T00:53:38;18.00;;;10.97;;
8889;SDS011;4481;43.406;24.454;2023-05-13T00:56:05;21.13;;;11.20;;
8889;SDS011;4481;43.406;24.454;2023-05-13T00:58:31;21.23;;;12.50;;
8889;SDS011;4481;43.406;24.454;2023-05-13T01:01:00;17.17;;;11.10;;
8889;SDS011;4481;43.406;24.454;2023-05-13T01:03:38;11.93;;;8.93;;
8889;SDS011;4481;43.406;24.454;2023-05-13T01:06:11;11.50;;;7.67;;
8889;SDS011;4481;43.406;24.454;2023-05-13T01:08:42;8.07;;;6.87;;
8889;SDS011;4481;43.406;24.454;2023-05-13T01:11:18;8.07;;;6.50;;
8889;SDS011;4481;43.406;24.454;2023-05-13T01:13:48;10.20;;;6.50;;
8889;SDS011;4481;43.406;24.454;2023-05-13T01:16:20;9.83;;;6.40;;
8889;SDS011;4481;43.406;24.454;2023-05-13T01:18:52;10.40;;;6.57;;
8889;SDS011;4481;43.406;24.454;2023-05-13T01:21:24;9.30;;;7.10;;
8889;SDS011;4481;43.406;24.454;2023-05-13T01:23:51;10.73;;;7.27;;
8889;SDS011;4481;43.406;24.454;2023-05-13T01:26:17;7.47;;;6.67;;
8889;SDS011;4481;43.406;24.454;2023-05-13T01:28:43;10.83;;;7.30;;
8889;SDS011;4481;43.406;24.454;2023-05-13T01:31:10;10.00;;;7.57;;
8889;SDS011;4481;43.406;24.454;2023-05-13T01:33:37;10.50;;;7.63;;
8889;SDS011;4481;43.406;24.454;2023-05-13T01:36:05;10.20;;;7.80;;
8889;SDS011;4481;43.406;24.454;2023-05-13T01:38:32;14.03;;;9.23;;
8889;SDS011;4481;43.406;24.454;2023-05-13T01:41:00;17.40;;;10.00;;
8889;SDS011;4481;43.406;24.454;2023-05-13T01:43:26;20.80;;;12.77;;
8889;SDS011;4481;43.406;24.454;2023-05-13T01:45:53;20.57;;;12.97;;
8889;SDS011;4481;43.406;24.454;2023-05-13T01:48:19;21.60;;;12.53;;
8889;SDS011;4481;43.406;24.454;2023-05-13T01:50:45;16.13;;;10.40;;
8889;SDS011;4481;43.406;24.454;2023-05-13T01:53:11;21.07;;;10.40;;
8889;SDS011;4481;43.406;24.454;2023-05-13T01:55:38;20.27;;;10.27;;
8889;SDS011;4481;43.406;24.454;2023-05-13T01:58:04;15.47;;;9.77;;
8889;SDS011;4481;43.406;24.454;2023-05-13T02:00:30;14.10;;;9.00;;
8889;SDS011;4481;43.406;24.454;2023-05-13T02:02:56;11.03;;;7.50;;
8889;SDS011;4481;43.406;24.454;2023-05-13T02:05:23;11.53;;;7.70;;
8889;SDS011;4481;43.406;24.454;2023-05-13T02:07:49;11.10;;;6.93;;
8889;SDS011;4481;43.406;24.454;2023-05-13T02:10:15;9.63;;;7.07;;
8889;SDS011;4481;43.406;24.454;2023-05-13T02:12:42;12.53;;;6.63;;
8889;SDS011;4481;43.406;24.454;2023-05-13T02:15:09;9.07;;;6.43;;
8889;SDS011;4481;43.406;24.454;2023-05-13T02:17:35;8.47;;;7.03;;
8889;SDS011;4481;43.406;24.454;2023-05-13T02:20:02;7.50;;;5.87;;
8889;SDS011;4481;43.406;24.454;2023-05-13T02:22:28;7.83;;;6.03;;
8889;SDS011;4481;43.406;24.454;2023-05-13T02:24:54;10.30;;;6.00;;
8889;SDS011;4481;43.406;24.454;2023-05-13T02:27:20;7.73;;;5.70;;
8889;SDS011;4481;43.406;24.454;2023-05-13T02:29:48;10.83;;;5.97;;
8889;SDS011;4481;43.406;24.454;2023-05-13T02:32:14;7.43;;;5.47;;
8889;SDS011;4481;43.406;24.454;2023-05-13T02:34:40;12.90;;;5.87;;
8889;SDS011;4481;43.406;24.454;2023-05-13T02:37:07;8.47;;;5.97;;
8889;SDS011;4481;43.406;24.454;2023-05-13T02:39:33;11.93;;;6.27;;
8889;SDS011;4481;43.406;24.454;2023-05-13T02:42:00;6.90;;;6.20;;
8889;SDS011;4481;43.406;24.454;2023-05-13T02:44:27;6.67;;;6.00;;
8889;SDS011;4481;43.406;24.454;2023-05-13T02:46:53;9.63;;;6.00;;
8889;SDS011;4481;43.406;24.454;2023-05-13T02:49:20;8.17;;;6.10;;
8889;SDS011;4481;43.406;24.454;2023-05-13T02:51:46;7.60;;;5.87;;
8889;SDS011;4481;43.406;24.454;2023-05-13T02:54:12;8.67;;;6.33;;
8889;SDS011;4481;43.406;24.454;2023-05-13T02:56:38;9.40;;;6.20;;
8889;SDS011;4481;43.406;24.454;2023-05-13T02:59:04;8.03;;;6.30;;
8889;SDS011;4481;43.406;24.454;2023-05-13T03:01:30;11.13;;;6.30;;
8889;SDS011;4481;43.406;24.454;2023-05-13T03:03:57;7.13;;;5.60;;
8889;SDS011;4481;43.406;24.454;2023-05-13T03:06:23;6.90;;;6.10;;
8889;SDS011;4481;43.406;24.454;2023-05-13T03:08:50;6.33;;;5.67;;
8889;SDS011;4481;43.406;24.454;2023-05-13T03:11:16;8.30;;;5.63;;
8889;SDS011;4481;43.406;24.454;2023-05-13T03:13:42;6.63;;;5.90;;
8889;SDS011;4481;43.406;24.454;2023-05-13T03:16:08;8.57;;;5.50;;
8889;SDS011;4481;43.406;24.454;2023-05-13T03:18:34;7.10;;;5.20;;
8889;SDS011;4481;43.406;24.454;2023-05-13T03:21:01;6.80;;;5.47;;
8889;SDS011;4481;43.406;24.454;2023-05-13T03:23:27;7.80;;;4.90;;
8889;SDS011;4481;43.406;24.454;2023-05-13T03:25:53;7.53;;;6.10;;
8889;SDS011;4481;43.406;24.454;2023-05-13T03:28:19;7.57;;;6.03;;
8889;SDS011;4481;43.406;24.454;2023-05-13T03:30:45;7.07;;;5.87;;
8889;SDS011;4481;43.406;24.454;2023-05-13T03:33:11;8.67;;;5.63;;
8889;SDS011;4481;43.406;24.454;2023-05-13T03:35:38;9.50;;;6.37;;
8889;SDS011;4481;43.406;24.454;2023-05-13T03:38:04;9.77;;;6.60;;
8889;SDS011;4481;43.406;24.454;2023-05-13T03:40:31;6.70;;;6.10;;
8889;SDS011;4481;43.406;24.454;2023-05-13T03:42:57;11.00;;;7.30;;
8889;SDS011;4481;43.406;24.454;2023-05-13T03:45:23;10.23;;;6.77;;
8889;SDS011;4481;43.406;24.454;2023-05-13T03:47:49;8.17;;;7.07;;
8889;SDS011;4481;43.406;24.454;2023-05-13T03:50:16;7.77;;;6.97;;
8889;SDS011;4481;43.406;24.454;2023-05-13T03:52:42;7.40;;;6.67;;
8889;SDS011;4481;43.406;24.454;2023-05-13T03:55:09;8.40;;;6.33;;
8889;SDS011;4481;43.406;24.454;2023-05-13T03:57:35;17.50;;;9.90;;
8889;SDS011;4481;43.406;24.454;2023-05-13T04:00:01;19.20;;;11.97;;
8889;SDS011;4481;43.406;24.454;2023-05-13T04:02:27;19.63;;;11.60;;
8889;SDS011;4481;43.406;24.454;2023-05-13T04:04:54;16.43;;;10.87;;
8889;SDS011;4481;43.406;24.454;2023-05-13T04:07:20;15.10;;;10.27;;
8889;SDS011;4481;43.406;24.454;2023-05-13T04:09:46;16.73;;;10.10;;
8889;SDS011;4481;43.406;24.454;2023-05-13T04:12:13;10.97;;;8.27;;
8889;SDS011;4481;43.406;24.454;2023-05-13T04:14:39;14.27;;;8.73;;
8889;SDS011;4481;43.406;24.454;2023-05-13T04:17:05;12.67;;;7.70;;
8889;SDS011;4481;43.406;24.454;2023-05-13T04:19:32;8.77;;;7.27;;
8889;SDS011;4481;43.406;24.454;2023-05-13T04:21:58;10.03;;;6.93;;
8889;SDS011;4481;43.406;24.454;2023-05-13T04:24:24;7.87;;;6.97;;
8889;SDS011;4481;43.406;24.454;2023-05-13T04:26:50;11.47;;;7.40;;
8889;SDS011;4481;43.406;24.454;2023-05-13T04:29:17;12.63;;;7.90;;
8889;SDS011;4481;43.406;24.454;2023-05-13T04:31:43;14.60;;;9.53;;
8889;SDS011;4481;43.406;24.454;2023-05-13T04:34:09;23.33;;;14.17;;
8889;SDS011;4481;43.406;24.454;2023-05-13T04:36:36;18.70;;;11.73;;
8889;SDS011;4481;43.406;24.454;2023-05-13T04:39:02;23.53;;;13.33;;
8889;SDS011;4481;43.406;24.454;2023-05-13T04:41:28;24.23;;;14.07;;
8889;SDS011;4481;43.406;24.454;2023-05-13T04:43:54;26.70;;;14.30;;
8889;SDS011;4481;43.406;24.454;2023-05-13T04:46:21;34.00;;;16.23;;
8889;SDS011;4481;43.406;24.454;2023-05-13T04:48:47;11.93;;;8.63;;
8889;SDS011;4481;43.406;24.454;2023-05-13T04:51:14;9.70;;;7.80;;
8889;SDS011;4481;43.406;24.454;2023-05-13T04:53:40;12.53;;;8.30;;
8889;SDS011;4481;43.406;24.454;2023-05-13T04:56:07;17.43;;;7.83;;
8889;SDS011;4481;43.406;24.454;2023-05-13T04:58:33;9.93;;;7.80;;
8889;SDS011;4481;43.406;24.454;2023-05-13T05:00:59;10.40;;;8.07;;
8889;SDS011;4481;43.406;24.454;2023-05-13T05:03:26;12.83;;;8.70;;
8889;SDS011;4481;43.406;24.454;2023-05-13T05:05:52;10.20;;;8.10;;
8889;SDS011;4481;43.406;24.454;2023-05-13T05:08:18;11.97;;;8.00;;
8889;SDS011;4481;43.406;24.454;2023-05-13T05:10:44;11.80;;;7.87;;
8889;SDS011;4481;43.406;24.454;2023-05-13T05:13:10;14.50;;;8.10;;
8889;SDS011;4481;43.406;24.454;2023-05-13T05:15:36;12.73;;;8.20;;
8889;SDS011;4481;43.406;24.454;2023-05-13T05:18:02;11.33;;;8.53;;
8889;SDS011;4481;43.406;24.454;2023-05-13T05:20:31;11.13;;;9.00;;
8889;SDS011;4481;43.406;24.454;2023-05-13T05:22:57;11.27;;;9.20;;
8889;SDS011;4481;43.406;24.454;2023-05-13T05:25:23;15.80;;;9.50;;
8889;SDS011;4481;43.406;24.454;2023-05-13T05:27:49;14.63;;;10.67;;
8889;SDS011;4481;43.406;24.454;2023-05-13T05:30:16;13.70;;;9.63;;
8889;SDS011;4481;43.406;24.454;2023-05-13T05:32:42;12.70;;;9.63;;
8889;SDS011;4481;43.406;24.454;2023-05-13T05:35:08;15.23;;;8.43;;
8889;SDS011;4481;43.406;24.454;2023-05-13T05:37:35;10.73;;;8.30;;
8889;SDS011;4481;43.406;24.454;2023-05-13T05:40:01;13.30;;;8.20;;
8889;SDS011;4481;43.406;24.454;2023-05-13T05:42:28;9.80;;;8.80;;
8889;SDS011;4481;43.406;24.454;2023-05-13T05:44:54;13.53;;;8.87;;
8889;SDS011;4481;43.406;24.454;2023-05-13T05:47:20;13.10;;;8.03;;
8889;SDS011;4481;43.406;24.454;2023-05-13T05:49:46;10.07;;;8.13;;
8889;SDS011;4481;43.406;24.454;2023-05-13T05:52:12;12.80;;;7.67;;
8889;SDS011;4481;43.406;24.454;2023-05-13T05:54:39;10.77;;;7.37;;
8889;SDS011;4481;43.406;24.454;2023-05-13T05:57:05;12.93;;;8.33;;
8889;SDS011;4481;43.406;24.454;2023-05-13T05:59:31;8.93;;;7.57;;
8889;SDS011;4481;43.406;24.454;2023-05-13T06:01:57;8.30;;;7.40;;
8889;SDS011;4481;43.406;24.454;2023-05-13T06:04:24;10.73;;;7.93;;
8889;SDS011;4481;43.406;24.454;2023-05-13T06:06:50;10.63;;;7.97;;
8889;SDS011;4481;43.406;24.454;2023-05-13T06:09:16;11.47;;;9.50;;
8889;SDS011;4481;43.406;24.454;2023-05-13T06:11:43;11.13;;;8.93;;
8889;SDS011;4481;43.406;24.454;2023-05-13T06:14:09;9.83;;;8.17;;
8889;SDS011;4481;43.406;24.454;2023-05-13T06:16:35;10.70;;;8.20;;
8889;SDS011;4481;43.406;24.454;2023-05-13T06:19:01;11.00;;;8.60;;
8889;SDS011;4481;43.406;24.454;2023-05-13T06:21:27;12.07;;;8.33;;
8889;SDS011;4481;43.406;24.454;2023-05-13T06:23:53;10.93;;;8.60;;
8889;SDS011;4481;43.406;24.454;2023-05-13T06:26:19;10.43;;;7.83;;
8889;SDS011;4481;43.406;24.454;2023-05-13T06:28:46;9.87;;;8.00;;
8889;SDS011;4481;43.406;24.454;2023-05-13T06:31:13;10.93;;;7.80;;
8889;SDS011;4481;43.406;24.454;2023-05-13T06:33:39;11.00;;;7.53;;
8889;SDS011;4481;43.406;24.454;2023-05-13T06:36:06;8.10;;;7.30;;
8889;SDS011;4481;43.406;24.454;2023-05-13T06:38:33;7.40;;;6.70;;
8889;SDS011;4481;43.406;24.454;2023-05-13T06:40:59;8.00;;;7.20;;
8889;SDS011;4481;43.406;24.454;2023-05-13T06:43:25;7.80;;;7.00;;
8889;SDS011;4481;43.406;24.454;2023-05-13T06:45:52;9.63;;;6.60;;
8889;SDS011;4481;43.406;24.454;2023-05-13T06:48:18;7.90;;;7.10;;
8889;SDS011;4481;43.406;24.454;2023-05-13T06:50:45;6.83;;;6.13;;
8889;SDS011;4481;43.406;24.454;2023-05-13T06:53:11;8.83;;;7.60;;
8889;SDS011;4481;43.406;24.454;2023-05-13T06:55:37;8.17;;;6.77;;
8889;SDS011;4481;43.406;24.454;2023-05-13T06:58:05;11.40;;;6.40;;
8889;SDS011;4481;43.406;24.454;2023-05-13T07:00:35;9.07;;;6.50;;
8889;SDS011;4481;43.406;24.454;2023-05-13T07:03:03;6.23;;;5.30;;
8889;SDS011;4481;43.406;24.454;2023-05-13T07:05:29;6.07;;;5.47;;
8889;SDS011;4481;43.406;24.454;2023-05-13T07:07:55;6.17;;;5.60;;
8889;SDS011;4481;43.406;24.454;2023-05-13T07:10:21;9.40;;;6.47;;
8889;SDS011;4481;43.406;24.454;2023-05-13T07:12:47;8.90;;;6.30;;
8889;SDS011;4481;43.406;24.454;2023-05-13T07:15:13;10.93;;;6.07;;
8889;SDS011;4481;43.406;24.454;2023-05-13T07:17:40;8.13;;;6.80;;
8889;SDS011;4481;43.406;24.454;2023-05-13T07:20:08;7.17;;;6.40;;
8889;SDS011;4481;43.406;24.454;2023-05-13T07:22:34;6.37;;;5.63;;
8889;SDS011;4481;43.406;24.454;2023-05-13T07:25:00;6.10;;;4.90;;
8889;SDS011;4481;43.406;24.454;2023-05-13T07:27:27;7.50;;;5.83;;
8889;SDS011;4481;43.406;24.454;2023-05-13T07:29:53;6.73;;;5.70;;
8889;SDS011;4481;43.406;24.454;2023-05-13T07:32:19;6.90;;;5.30;;
8889;SDS011;4481;43.406;24.454;2023-05-13T07:34:45;6.70;;;5.43;;
8889;SDS011;4481;43.406;24.454;2023-05-13T07:37:12;6.40;;;5.60;;
8889;SDS011;4481;43.406;24.454;2023-05-13T07:39:38;5.27;;;4.70;;
8889;SDS011;4481;43.406;24.454;2023-05-13T07:42:05;5.87;;;4.97;;
8889;SDS011;4481;43.406;24.454;2023-05-13T07:44:31;5.30;;;4.53;;
8889;SDS011;4481;43.406;24.454;2023-05-13T07:46:57;6.63;;;4.30;;
8889;SDS011;4481;43.406;24.454;2023-05-13T07:49:23;4.27;;;3.83;;
8889;SDS011;4481;43.406;24.454;2023-05-13T07:51:49;4.10;;;3.67;;
8889;SDS011;4481;43.406;24.454;2023-05-13T07:54:16;6.33;;;4.33;;
8889;SDS011;4481;43.406;24.454;2023-05-13T07:56:43;4.03;;;3.63;;
8889;SDS011;4481;43.406;24.454;2023-05-13T07:59:10;6.07;;;4.90;;
8889;SDS011;4481;43.406;24.454;2023-05-13T08:01:36;5.53;;;4.93;;
8889;SDS011;4481;43.406;24.454;2023-05-13T08:04:03;8.13;;;5.00;;
8889;SDS011;4481;43.406;24.454;2023-05-13T08:06:29;4.90;;;4.40;;
8889;SDS011;4481;43.406;24.454;2023-05-13T08:08:56;4.60;;;4.00;;
8889;SDS011;4481;43.406;24.454;2023-05-13T08:11:23;4.63;;;4.20;;
8889;SDS011;4481;43.406;24.454;2023-05-13T08:13:49;4.50;;;4.07;;
8889;SDS011;4481;43.406;24.454;2023-05-13T08:16:15;9.40;;;3.90;;
8889;SDS011;4481;43.406;24.454;2023-05-13T08:18:41;5.17;;;3.90;;
8889;SDS011;4481;43.406;24.454;2023-05-13T08:21:08;5.70;;;4.00;;
8889;SDS011;4481;43.406;24.454;2023-05-13T08:23:35;4.73;;;3.63;;
8889;SDS011;4481;43.406;24.454;2023-05-13T08:26:02;5.03;;;3.27;;
8889;SDS011;4481;43.406;24.454;2023-05-13T08:28:29;3.77;;;3.10;;
8889;SDS011;4481;43.406;24.454;2023-05-13T08:30:55;10.03;;;3.30;;
8889;SDS011;4481;43.406;24.454;2023-05-13T08:33:26;3.03;;;2.63;;
8889;SDS011;4481;43.406;24.454;2023-05-13T08:35:52;4.90;;;3.20;;
8889;SDS011;4481;43.406;24.454;2023-05-13T08:38:19;3.37;;;2.83;;
8889;SDS011;4481;43.406;24.454;2023-05-13T08:40:45;5.17;;;3.43;;
8889;SDS011;4481;43.406;24.454;2023-05-13T08:43:11;3.40;;;3.10;;
8889;SDS011;4481;43.406;24.454;2023-05-13T08:45:40;6.80;;;3.20;;
8889;SDS011;4481;43.406;24.454;2023-05-13T08:48:06;4.87;;;3.30;;
8889;SDS011;4481;43.406;24.454;2023-05-13T08:50:34;4.73;;;3.50;;
8889;SDS011;4481;43.406;24.454;2023-05-13T08:53:01;6.60;;;3.10;;
8889;SDS011;4481;43.406;24.454;2023-05-13T08:55:28;3.80;;;3.20;;
8889;SDS011;4481;43.406;24.454;2023-05-13T08:57:55;2.93;;;2.63;;
8889;SDS011;4481;43.406;24.454;2023-05-13T09:00:21;4.07;;;3.40;;
8889;SDS011;4481;43.406;24.454;2023-05-13T09:02:48;5.63;;;3.70;;
8889;SDS011;4481;43.406;24.454;2023-05-13T09:05:15;3.20;;;2.90;;
8889;SDS011;4481;43.406;24.454;2023-05-13T09:07:42;4.80;;;4.20;;
8889;SDS011;4481;43.406;24.454;2023-05-13T09:10:09;4.70;;;4.30;;
8889;SDS011;4481;43.406;24.454;2023-05-13T09:12:42;5.67;;;3.83;;
8889;SDS011;4481;43.406;24.454;2023-05-13T09:15:12;3.93;;;3.53;;
8889;SDS011;4481;43.406;24.454;2023-05-13T09:17:39;4.93;;;4.43;;
8889;SDS011;4481;43.406;24.454;2023-05-13T09:20:08;5.07;;;3.60;;
8889;SDS011;4481;43.406;24.454;2023-05-13T09:22:39;6.70;;;3.50;;
8889;SDS011;4481;43.406;24.454;2023-05-13T09:25:07;4.67;;;3.93;;
8889;SDS011;4481;43.406;24.454;2023-05-13T09:27:37;11.60;;;4.20;;
8889;SDS011;4481;43.406;24.454;2023-05-13T09:30:05;4.47;;;4.00;;
8889;SDS011;4481;43.406;24.454;2023-05-13T09:32:32;5.97;;;3.77;;
8889;SDS011;4481;43.406;24.454;2023-05-13T09:35:06;4.63;;;3.93;;
8889;SDS011;4481;43.406;24.454;2023-05-13T09:37:35;5.13;;;3.63;;
8889;SDS011;4481;43.406;24.454;2023-05-13T09:40:01;4.60;;;4.10;;
8889;SDS011;4481;43.406;24.454;2023-05-13T09:42:28;4.93;;;3.63;;
8889;SDS011;4481;43.406;24.454;2023-05-13T09:44:57;4.60;;;3.87;;
8889;SDS011;4481;43.406;24.454;2023-05-13T09:47:30;3.93;;;3.47;;
8889;SDS011;4481;43.406;24.454;2023-05-13T09:49:56;4.10;;;3.60;;
8889;SDS011;4481;43.406;24.454;2023-05-13T09:52:23;3.73;;;3.40;;
8889;SDS011;4481;43.406;24.454;2023-05-13T09:54:49;4.47;;;3.87;;
8889;SDS011;4481;43.406;24.454;2023-05-13T09:57:15;3.53;;;3.23;;
8889;SDS011;4481;43.406;24.454;2023-05-13T09:59:41;4.40;;;3.07;;
8889;SDS011;4481;43.406;24.454;2023-05-13T10:02:07;4.13;;;3.30;;
8889;SDS011;4481;43.406;24.454;2023-05-13T10:04:34;6.13;;;3.13;;
8889;SDS011;4481;43.406;24.454;2023-05-13T10:07:01;3.23;;;2.93;;
8889;SDS011;4481;43.406;24.454;2023-05-13T10:09:29;3.10;;;2.73;;
8889;SDS011;4481;43.406;24.454;2023-05-13T10:12:01;3.03;;;2.70;;
8889;SDS011;4481;43.406;24.454;2023-05-13T10:14:28;5.93;;;3.00;;
8889;SDS011;4481;43.406;24.454;2023-05-13T10:16:55;5.23;;;2.53;;
8889;SDS011;4481;43.406;24.454;2023-05-13T10:19:23;3.20;;;2.60;;
8889;SDS011;4481;43.406;24.454;2023-05-13T10:21:51;3.43;;;2.77;;
8889;SDS011;4481;43.406;24.454;2023-05-13T10:24:18;2.43;;;2.23;;
8889;SDS011;4481;43.406;24.454;2023-05-13T10:26:46;2.70;;;2.47;;
8889;SDS011;4481;43.406;24.454;2023-05-13T10:29:12;4.67;;;2.67;;
8889;SDS011;4481;43.406;24.454;2023-05-13T10:31:39;2.63;;;2.37;;
8889;SDS011;4481;43.406;24.454;2023-05-13T10:34:06;3.93;;;2.40;;
8889;SDS011;4481;43.406;24.454;2023-05-13T10:36:46;3.07;;;2.60;;
8889;SDS011;4481;43.406;24.454;2023-05-13T10:39:31;6.03;;;2.40;;
8889;SDS011;4481;43.406;24.454;2023-05-13T10:42:29;2.43;;;2.23;;
8889;SDS011;4481;43.406;24.454;2023-05-13T10:45:03;4.57;;;2.57;;
8889;SDS011;4481;43.406;24.454;2023-05-13T10:47:30;4.73;;;2.67;;
8889;SDS011;4481;43.406;24.454;2023-05-13T10:49:57;4.70;;;2.50;;
8889;SDS011;4481;43.406;24.454;2023-05-13T10:52:40;2.90;;;2.33;;
8889;SDS011;4481;43.406;24.454;2023-05-13T10:55:08;6.80;;;2.67;;
8889;SDS011;4481;43.406;24.454;2023-05-13T10:57:41;2.67;;;2.33;;
8889;SDS011;4481;43.406;24.454;2023-05-13T11:00:29;3.43;;;2.30;;
8889;SDS011;4481;43.406;24.454;2023-05-13T11:02:55;2.63;;;2.10;;
8889;SDS011;4481;43.406;24.454;2023-05-13T11:05:22;4.87;;;2.37;;
8889;SDS011;4481;43.406;24.454;2023-05-13T11:07:57;2.47;;;2.10;;
8889;SDS011;4481;43.406;24.454;2023-05-13T11:10:23;2.50;;;2.30;;
8889;SDS011;4481;43.406;24.454;2023-05-13T11:13:08;2.80;;;2.50;;
8889;SDS011;4481;43.406;24.454;2023-05-13T11:15:47;4.63;;;2.63;;
8889;SDS011;4481;43.406;24.454;2023-05-13T11:18:14;2.90;;;2.60;;
8889;SDS011;4481;43.406;24.454;2023-05-13T11:20:43;2.43;;;2.23;;
8889;SDS011;4481;43.406;24.454;2023-05-13T11:23:15;5.23;;;2.40;;
8889;SDS011;4481;43.406;24.454;2023-05-13T11:25:42;3.43;;;2.40;;
8889;SDS011;4481;43.406;24.454;2023-05-13T11:28:09;3.53;;;2.60;;
8889;SDS011;4481;43.406;24.454;2023-05-13T11:30:40;2.63;;;2.10;;
8889;SDS011;4481;43.406;24.454;2023-05-13T11:33:19;3.60;;;2.37;;
8889;SDS011;4481;43.406;24.454;2023-05-13T11:35:51;2.60;;;2.40;;
8889;SDS011;4481;43.406;24.454;2023-05-13T11:38:20;2.20;;;2.00;;
8889;SDS011;4481;43.406;24.454;2023-05-13T11:40:48;4.37;;;2.30;;
8889;SDS011;4481;43.406;24.454;2023-05-13T11:43:17;2.77;;;2.47;;
8889;SDS011;4481;43.406;24.454;2023-05-13T11:45:45;4.03;;;2.20;;
8889;SDS011;4481;43.406;24.454;2023-05-13T11:48:21;2.93;;;2.30;;
8889;SDS011;4481;43.406;24.454;2023-05-13T11:50:48;2.90;;;2.20;;
8889;SDS011;4481;43.406;24.454;2023-05-13T11:53:18;2.33;;;2.13;;
8889;SDS011;4481;43.406;24.454;2023-05-13T11:55:46;3.70;;;2.80;;
8889;SDS011;4481;43.406;24.454;2023-05-13T11:58:13;6.73;;;2.40;;
8889;SDS011;4481;43.406;24.454;2023-05-13T12:00:40;2.23;;;2.00;;
8889;SDS011;4481;43.406;24.454;2023-05-13T12:03:08;2.47;;;2.17;;
8889;SDS011;4481;43.406;24.454;2023-05-13T12:05:35;2.70;;;2.50;;
8889;SDS011;4481;43.406;24.454;2023-05-13T12:08:01;2.73;;;2.30;;
8889;SDS011;4481;43.406;24.454;2023-05-13T12:10:28;3.40;;;2.60;;
8889;SDS011;4481;43.406;24.454;2023-05-13T12:12:54;2.13;;;2.03;;
8889;SDS011;4481;43.406;24.454;2023-05-13T12:15:20;2.00;;;1.80;;
8889;SDS011;4481;43.406;24.454;2023-05-13T12:17:47;2.20;;;2.00;;
8889;SDS011;4481;43.406;24.454;2023-05-13T12:20:14;5.77;;;2.20;;
8889;SDS011;4481;43.406;24.454;2023-05-13T12:22:51;5.00;;;2.20;;
8889;SDS011;4481;43.406;24.454;2023-05-13T12:28:10;4.33;;;2.37;;
8889;SDS011;4481;43.406;24.454;2023-05-13T12:30:41;3.13;;;2.53;;
8889;SDS011;4481;43.406;24.454;2023-05-13T12:33:13;3.47;;;2.17;;
8889;SDS011;4481;43.406;24.454;2023-05-13T12:35:40;2.73;;;1.87;;
8889;SDS011;4481;43.406;24.454;2023-05-13T12:38:06;2.80;;;1.97;;
8889;SDS011;4481;43.406;24.454;2023-05-13T12:40:32;2.97;;;2.07;;
8889;SDS011;4481;43.406;24.454;2023-05-13T12:42:59;3.40;;;1.90;;
8889;SDS011;4481;43.406;24.454;2023-05-13T12:45:27;3.53;;;2.27;;
8889;SDS011;4481;43.406;24.454;2023-05-13T12:47:54;2.97;;;2.10;;
8889;SDS011;4481;43.406;24.454;2023-05-13T12:50:21;2.20;;;2.00;;
8889;SDS011;4481;43.406;24.454;2023-05-13T12:52:48;6.40;;;2.50;;
8889;SDS011;4481;43.406;24.454;2023-05-13T12:55:14;3.17;;;1.97;;
8889;SDS011;4481;43.406;24.454;2023-05-13T12:57:41;2.33;;;1.97;;
8889;SDS011;4481;43.406;24.454;2023-05-13T13:00:08;2.87;;;1.87;;
8889;SDS011;4481;43.406;24.454;2023-05-13T13:02:35;2.50;;;2.00;;
8889;SDS011;4481;43.406;24.454;2023-05-13T13:05:01;3.40;;;1.90;;
8889;SDS011;4481;43.406;24.454;2023-05-13T13:07:28;3.57;;;2.10;;
8889;SDS011;4481;43.406;24.454;2023-05-13T13:09:54;2.07;;;1.97;;
8889;SDS011;4481;43.406;24.454;2023-05-13T13:12:21;4.10;;;1.80;;
8889;SDS011;4481;43.406;24.454;2023-05-13T13:14:47;2.37;;;2.00;;
8889;SDS011;4481;43.406;24.454;2023-05-13T13:17:13;5.03;;;2.40;;
8889;SDS011;4481;43.406;24.454;2023-05-13T13:19:39;3.13;;;2.10;;
8889;SDS011;4481;43.406;24.454;2023-05-13T13:22:05;4.63;;;2.30;;
8889;SDS011;4481;43.406;24.454;2023-05-13T13:24:32;1.97;;;1.83;;
8889;SDS011;4481;43.406;24.454;2023-05-13T13:26:59;3.07;;;2.20;;
8889;SDS011;4481;43.406;24.454;2023-05-13T13:29:25;2.50;;;1.90;;
8889;SDS011;4481;43.406;24.454;2023-05-13T13:31:51;3.50;;;1.77;;
8889;SDS011;4481;43.406;24.454;2023-05-13T13:34:18;2.80;;;2.00;;
8889;SDS011;4481;43.406;24.454;2023-05-13T13:36:44;2.17;;;1.90;;
8889;SDS011;4481;43.406;24.454;2023-05-13T13:39:10;4.13;;;2.17;;
8889;SDS011;4481;43.406;24.454;2023-05-13T13:41:38;2.67;;;2.27;;
8889;SDS011;4481;43.406;24.454;2023-05-13T13:44:04;2.67;;;2.20;;
8889;SDS011;4481;43.406;24.454;2023-05-13T13:46:30;2.70;;;1.63;;
8889;SDS011;4481;43.406;24.454;2023-05-13T13:48:56;2.67;;;2.03;;
8889;SDS011;4481;43.406;24.454;2023-05-13T13:51:22;2.83;;;2.07;;
8889;SDS011;4481;43.406;24.454;2023-05-13T13:53:48;1.90;;;1.80;;
8889;SDS011;4481;43.406;24.454;2023-05-13T13:56:15;3.03;;;1.80;;
8889;SDS011;4481;43.406;24.454;2023-05-13T13:58:41;2.53;;;2.23;;
8889;SDS011;4481;43.406;24.454;2023-05-13T14:01:08;2.77;;;2.20;;
8889;SDS011;4481;43.406;24.454;2023-05-13T14:03:34;2.93;;;1.87;;
8889;SDS011;4481;43.406;24.454;2023-05-13T14:06:00;2.73;;;2.20;;
8889;SDS011;4481;43.406;24.454;2023-05-13T14:08:26;2.53;;;2.33;;
8889;SDS011;4481;43.406;24.454;2023-05-13T14:10:52;3.13;;;2.17;;
8889;SDS011;4481;43.406;24.454;2023-05-13T14:13:19;2.80;;;2.20;;
8889;SDS011;4481;43.406;24.454;2023-05-13T14:15:46;3.97;;;2.30;;
8889;SDS011;4481;43.406;24.454;2023-05-13T14:18:12;2.63;;;2.23;;
8889;SDS011;4481;43.406;24.454;2023-05-13T14:20:38;2.27;;;2.03;;
8889;SDS011;4481;43.406;24.454;2023-05-13T14:23:04;2.47;;;2.00;;
8889;SDS011;4481;43.406;24.454;2023-05-13T14:25:30;7.57;;;2.57;;
8889;SDS011;4481;43.406;24.454;2023-05-13T14:27:57;3.40;;;2.40;;
8889;SDS011;4481;43.406;24.454;2023-05-13T14:30:23;1.97;;;1.87;;
8889;SDS011;4481;43.406;24.454;2023-05-13T14:32:52;2.97;;;2.17;;
8889;SDS011;4481;43.406;24.454;2023-05-13T14:35:18;3.70;;;2.70;;
8889;SDS011;4481;43.406;24.454;2023-05-13T14:37:44;2.20;;;2.00;;
8889;SDS011;4481;43.406;24.454;2023-05-13T14:40:11;4.30;;;2.40;;
8889;SDS011;4481;43.406;24.454;2023-05-13T14:42:37;3.00;;;2.30;;
8889;SDS011;4481;43.406;24.454;2023-05-13T14:45:05;2.13;;;1.93;;
8889;SDS011;4481;43.406;24.454;2023-05-13T14:47:31;5.37;;;2.40;;
8889;SDS011;4481;43.406;24.454;2023-05-13T14:49:59;2.87;;;2.20;;
8889;SDS011;4481;43.406;24.454;2023-05-13T14:52:25;2.17;;;1.90;;
8889;SDS011;4481;43.406;24.454;2023-05-13T14:54:51;3.07;;;1.97;;
8889;SDS011;4481;43.406;24.454;2023-05-13T14:57:17;2.43;;;1.67;;
8889;SDS011;4481;43.406;24.454;2023-05-13T14:59:45;4.27;;;2.00;;